Time,TemperatureF,DewpointF,PressureIn,WindDirection,WindDirectionDegrees,WindSpeedMPH,WindSpeedGustMPH,Humidity,HourlyPrecipIn,Conditions,Clouds,dailyrainin,SoftwareType,DateUTC
2013-04-15 00:12:00,51.0,46.0,28.31,SW,219,0.0,1.0,82,0.00,,,0.00,weatherlink.com 1.10,2013-04-15 04:12:00,
2013-04-15 00:27:00,50.7,45.0,28.31,SW,219,0.0,0.0,82,0.00,,,0.00,weatherlink.com 1.10,2013-04-15 04:27:00,
2013-04-15 00:42:00,50.7,45.0,28.31,SW,219,0.0,0.0,80,0.00,,,0.00,weatherlink.com 1.10,2013-04-15 04:42:00,
2013-04-15 00:57:00,50.6,45.0,28.32,SW,219,0.0,0.0,82,0.00,,,0.00,weatherlink.com 1.10,2013-04-15 04:57:00,
2013-04-15 01:12:00,50.3,45.0,28.32,SW,219,0.0,0.0,83,0.00,,,0.00,weatherlink.com 1.10,2013-04-15 05:12:00,
2013-04-15 01:27:00,50.5,47.0,28.32,SW,219,0.0,0.0,86,0.00,,,0.00,weatherlink.com 1.10,2013-04-15 05:27:00,
2013-04-15 01:42:00,50.3,46.0,28.32,SW,219,0.0,0.0,86,0.00,,,0.00,weatherlink.com 1.10,2013-04-15 05:42:00,
2013-04-15 01:57:00,50.3,46.0,28.32,SW,219,0.0,0.0,84,0.00,,,0.00,weatherlink.com 1.10,2013-04-15 05:57:00,
2013-04-15 02:12:00,50.4,46.0,28.32,SW,219,0.0,0.0,84,0.00,,,0.00,weatherlink.com 1.10,2013-04-15 06:12:00,
2013-04-15 02:27:00,50.5,46.0,28.32,SW,219,0.0,0.0,83,0.00,,,0.00,weatherlink.com 1.10,2013-04-15 06:27:00,
2013-04-15 02:42:00,50.8,46.0,28.32,SSE,166,1.0,-999.0,83,-99.99,,,0.00,weatherlink.com 1.10,2013-04-15 06:42:00,
2013-04-15 02:57:00,50.7,46.0,28.33,West,262,0.0,2.0,84,0.00,,,0.00,weatherlink.com 1.10,2013-04-15 06:57:00,
2013-04-15 03:42:00,54.7,47.0,28.34,South,173,2.0,7.0,74,0.00,,,0.00,weatherlink.com 1.10,2013-04-15 07:42:00,
2013-04-15 03:57:00,54.0,47.0,28.34,South,169,2.0,6.0,77,0.00,,,0.00,weatherlink.com 1.10,2013-04-15 07:57:00,
2013-04-15 04:12:00,53.4,47.0,28.34,South,173,2.0,6.0,79,0.00,,,0.00,weatherlink.com 1.10,2013-04-15 08:12:00,
2013-04-15 04:42:00,52.3,48.0,28.34,South,169,0.0,2.0,84,0.00,,,0.00,weatherlink.com 1.10,2013-04-15 08:42:00,
2013-04-15 04:57:00,51.5,48.0,28.34,South,172,0.0,0.0,87,0.00,,,0.00,weatherlink.com 1.10,2013-04-15 08:57:00,
2013-04-15 05:12:00,50.9,48.0,28.35,South,172,0.0,0.0,91,0.01,,,0.01,weatherlink.com 1.10,2013-04-15 09:12:00,
2013-04-15 05:27:00,50.5,48.0,28.36,NW,305,0.0,0.0,92,0.02,,,0.02,weatherlink.com 1.10,2013-04-15 09:27:00,
2013-04-15 05:42:00,50.3,48.0,28.36,NW,312,0.0,1.0,93,0.02,,,0.02,weatherlink.com 1.10,2013-04-15 09:42:00,
2013-04-15 05:57:00,50.4,49.0,28.36,South,170,0.0,2.0,93,0.02,,,0.02,weatherlink.com 1.10,2013-04-15 09:57:00,
2013-04-15 06:13:00,50.4,49.0,28.37,SE,133,0.0,0.0,93,0.02,,,0.03,weatherlink.com 1.10,2013-04-15 10:13:00,
2013-04-15 06:27:00,50.3,49.0,28.37,SE,133,0.0,0.0,94,0.01,,,0.03,weatherlink.com 1.10,2013-04-15 10:27:00,
2013-04-15 06:42:00,50.1,49.0,28.37,SE,138,0.0,1.0,94,0.02,,,0.04,weatherlink.com 1.10,2013-04-15 10:42:00,
2013-04-15 06:57:00,50.2,49.0,28.38,ESE,117,0.0,1.0,95,0.03,,,0.05,weatherlink.com 1.10,2013-04-15 10:57:00,
2013-04-15 07:12:00,49.9,49.0,28.38,ESE,117,0.0,0.0,95,0.03,,,0.06,weatherlink.com 1.10,2013-04-15 11:12:00,
2013-04-15 07:27:00,49.8,49.0,28.38,ESE,117,0.0,1.0,95,0.03,,,0.07,weatherlink.com 1.10,2013-04-15 11:27:00,
2013-04-15 07:42:00,49.9,49.0,28.39,ESE,117,0.0,0.0,96,0.03,,,0.07,weatherlink.com 1.10,2013-04-15 11:42:00,
2013-04-15 07:57:00,50.2,49.0,28.39,ESE,117,0.0,0.0,96,0.02,,,0.07,weatherlink.com 1.10,2013-04-15 11:57:00,
2013-04-15 08:12:00,50.5,49.0,28.39,ESE,117,0.0,1.0,96,0.02,,,0.08,weatherlink.com 1.10,2013-04-15 12:12:00,
2013-04-15 08:27:00,50.8,50.0,28.39,ESE,117,0.0,1.0,96,0.01,,,0.08,weatherlink.com 1.10,2013-04-15 12:27:00,
2013-04-15 08:42:00,51.3,50.0,28.39,ESE,117,0.0,1.0,96,0.01,,,0.08,weatherlink.com 1.10,2013-04-15 12:42:00,
2013-04-15 08:57:00,51.6,50.0,28.39,ESE,117,1.0,1.0,95,0.01,,,0.08,weatherlink.com 1.10,2013-04-15 12:57:00,
2013-04-15 09:12:00,52.0,51.0,28.39,ESE,117,0.0,1.0,95,0.00,,,0.08,weatherlink.com 1.10,2013-04-15 13:12:00,
2013-04-15 09:27:00,52.6,51.0,28.39,South,188,1.0,1.0,94,0.01,,,0.09,weatherlink.com 1.10,2013-04-15 13:27:00,
2013-04-15 09:42:00,53.2,51.0,28.39,SE,141,0.0,1.0,91,0.01,,,0.09,weatherlink.com 1.10,2013-04-15 13:42:00,
2013-04-15 09:58:00,53.8,51.0,28.39,South,172,2.0,2.0,90,0.01,,,0.09,weatherlink.com 1.10,2013-04-15 13:58:00,
2013-04-15 10:13:00,54.2,51.0,28.39,SE,136,2.0,4.0,87,0.01,,,0.09,weatherlink.com 1.10,2013-04-15 14:13:00,
2013-04-15 10:28:00,54.5,50.0,28.40,NW,304,0.0,5.0,86,0.00,,,0.09,weatherlink.com 1.10,2013-04-15 14:28:00,
2013-04-15 10:43:00,54.4,49.0,28.40,South,174,1.0,11.0,81,0.00,,,0.09,weatherlink.com 1.10,2013-04-15 14:43:00,
2013-04-15 10:58:00,54.9,50.0,28.41,SSW,204,2.0,5.0,82,0.00,,,0.09,weatherlink.com 1.10,2013-04-15 14:58:00,
2013-04-15 11:13:00,54.8,49.0,28.41,SSW,206,4.0,7.0,82,0.00,,,0.09,weatherlink.com 1.10,2013-04-15 15:13:00,
2013-04-15 11:28:00,54.9,49.0,28.41,SSW,192,5.0,7.0,80,0.00,,,0.09,weatherlink.com 1.10,2013-04-15 15:28:00,
2013-04-15 11:43:00,54.9,49.0,28.41,SSE,160,7.0,10.0,81,0.00,,,0.09,weatherlink.com 1.10,2013-04-15 15:43:00,
2013-04-15 11:58:00,54.9,49.0,28.41,South,172,3.0,6.0,80,0.00,,,0.09,weatherlink.com 1.10,2013-04-15 15:58:00,
2013-04-15 12:13:00,54.9,49.0,28.41,SSW,201,0.0,6.0,80,0.00,,,0.09,weatherlink.com 1.10,2013-04-15 16:13:00,
2013-04-15 12:28:00,55.5,50.0,28.41,SSW,195,2.0,7.0,81,0.00,,,0.09,weatherlink.com 1.10,2013-04-15 16:28:00,
2013-04-15 12:43:00,55.6,50.0,28.41,SW,232,0.0,10.0,80,0.00,,,0.09,weatherlink.com 1.10,2013-04-15 16:43:00,
2013-04-15 12:58:00,55.3,49.0,28.42,SSW,193,4.0,9.0,80,0.00,,,0.09,weatherlink.com 1.10,2013-04-15 16:58:00,
2013-04-15 13:13:00,55.3,50.0,28.42,South,173,4.0,7.0,81,0.00,,,0.09,weatherlink.com 1.10,2013-04-15 17:13:00,
2013-04-15 13:28:00,55.3,49.0,28.42,South,173,3.0,10.0,79,0.00,,,0.09,weatherlink.com 1.10,2013-04-15 17:28:00,
2013-04-15 13:43:00,56.5,48.0,28.42,SSE,167,4.0,12.0,73,0.00,,,0.09,weatherlink.com 1.10,2013-04-15 17:43:00,
2013-04-15 13:58:00,57.4,48.0,28.42,SE,130,8.0,12.0,72,0.00,,,0.09,weatherlink.com 1.10,2013-04-15 17:58:00,
2013-04-15 14:13:00,57.6,48.0,28.42,SSE,160,6.0,11.0,70,0.00,,,0.09,weatherlink.com 1.10,2013-04-15 18:13:00,
2013-04-15 14:28:00,58.7,49.0,28.42,South,190,5.0,8.0,70,0.00,,,0.09,weatherlink.com 1.10,2013-04-15 18:28:00,
2013-04-15 14:43:00,59.6,48.0,28.41,SSE,157,4.0,13.0,66,0.00,,,0.09,weatherlink.com 1.10,2013-04-15 18:43:00,
2013-04-15 14:58:00,59.4,48.0,28.41,SSW,198,5.0,10.0,66,0.00,,,0.09,weatherlink.com 1.10,2013-04-15 18:58:00,
2013-04-15 15:13:00,58.8,47.0,28.40,South,188,6.0,14.0,64,0.00,,,0.09,weatherlink.com 1.10,2013-04-15 19:13:00,
2013-04-15 15:28:00,58.5,47.0,28.40,SSE,157,6.0,11.0,66,0.00,,,0.09,weatherlink.com 1.10,2013-04-15 19:28:00,
2013-04-15 15:43:00,58.5,48.0,28.40,SSW,200,4.0,10.0,68,0.00,,,0.09,weatherlink.com 1.10,2013-04-15 19:43:00,
2013-04-15 15:58:00,58.4,48.0,28.40,SSE,149,5.0,10.0,68,0.00,,,0.09,weatherlink.com 1.10,2013-04-15 19:58:00,
2013-04-15 16:13:00,58.4,48.0,28.40,SSE,148,4.0,8.0,68,0.00,,,0.00,weatherlink.com 1.10,2013-04-15 20:13:00,
2013-04-15 16:28:00,58.8,48.0,28.39,SSW,195,3.0,8.0,67,0.00,,,0.00,weatherlink.com 1.10,2013-04-15 20:28:00,
2013-04-15 16:43:00,59.0,48.0,28.40,SSW,210,1.0,7.0,67,0.00,,,0.00,weatherlink.com 1.10,2013-04-15 20:43:00,
2013-04-15 16:58:00,59.2,49.0,28.40,South,176,6.0,9.0,68,0.00,,,0.00,weatherlink.com 1.10,2013-04-15 20:58:00,
2013-04-15 17:13:00,59.3,48.0,28.40,South,176,5.0,9.0,67,0.00,,,0.00,weatherlink.com 1.10,2013-04-15 21:13:00,
2013-04-15 17:43:00,58.6,48.0,28.40,SSE,160,6.0,7.0,69,0.00,,,0.00,weatherlink.com 1.10,2013-04-15 21:43:00,
2013-04-15 17:58:00,58.4,48.0,28.40,SSE,150,3.0,14.0,68,0.00,,,0.00,weatherlink.com 1.10,2013-04-15 21:58:00,
2013-04-15 18:13:00,58.3,48.0,28.40,SSE,168,3.0,9.0,69,0.00,,,0.00,weatherlink.com 1.10,2013-04-15 22:13:00,
2013-04-15 18:28:00,58.2,48.0,28.41,SSE,157,5.0,9.0,70,0.00,,,0.00,weatherlink.com 1.10,2013-04-15 22:28:00,
2013-04-15 18:43:00,58.0,49.0,28.41,South,172,2.0,6.0,71,0.00,,,0.00,weatherlink.com 1.10,2013-04-15 22:43:00,
2013-04-15 18:58:00,57.9,49.0,28.41,South,190,1.0,6.0,73,0.00,,,0.00,weatherlink.com 1.10,2013-04-15 22:58:00,
2013-04-15 19:13:00,57.8,49.0,28.41,SSE,163,1.0,4.0,73,0.00,,,0.00,weatherlink.com 1.10,2013-04-15 23:13:00,
2013-04-15 19:28:00,57.6,49.0,28.41,SSW,204,1.0,5.0,74,0.00,,,0.00,weatherlink.com 1.10,2013-04-15 23:28:00,
2013-04-15 19:43:00,57.4,50.0,28.42,SE,132,3.0,5.0,75,0.00,,,0.00,weatherlink.com 1.10,2013-04-15 23:43:00,
2013-04-15 19:58:00,57.2,50.0,28.42,SSE,149,3.0,5.0,76,0.00,,,0.00,weatherlink.com 1.10,2013-04-15 23:58:00,
2013-04-15 20:13:00,57.1,50.0,28.42,South,171,3.0,11.0,77,0.00,,,0.00,weatherlink.com 1.10,2013-04-16 00:13:00,
2013-04-15 20:28:00,56.9,50.0,28.42,South,181,4.0,11.0,77,0.00,,,0.00,weatherlink.com 1.10,2013-04-16 00:28:00,
2013-04-15 20:43:00,56.7,50.0,28.42,SSW,204,2.0,10.0,78,0.00,,,0.00,weatherlink.com 1.10,2013-04-16 00:43:00,
2013-04-15 20:59:00,56.7,50.0,28.42,SSW,200,3.0,9.0,78,0.00,,,0.00,weatherlink.com 1.10,2013-04-16 00:59:00,
2013-04-15 21:14:00,56.6,50.0,28.43,SE,135,3.0,12.0,79,0.00,,,0.00,weatherlink.com 1.10,2013-04-16 01:14:00,
2013-04-15 21:29:00,56.7,50.0,28.43,SE,139,5.0,10.0,79,0.00,,,0.00,weatherlink.com 1.10,2013-04-16 01:29:00,
2013-04-15 21:44:00,56.6,51.0,28.44,SSE,167,6.0,10.0,80,0.00,,,0.00,weatherlink.com 1.10,2013-04-16 01:44:00,
2013-04-15 21:59:00,56.3,51.0,28.44,WSW,250,4.0,8.0,81,0.00,,,0.00,weatherlink.com 1.10,2013-04-16 01:59:00,
2013-04-15 22:14:00,56.1,51.0,28.45,SSE,148,7.0,11.0,83,0.00,,,0.00,weatherlink.com 1.10,2013-04-16 02:14:00,
2013-04-15 22:29:00,56.1,51.0,28.45,SSE,155,6.0,10.0,83,0.00,,,0.00,weatherlink.com 1.10,2013-04-16 02:29:00,
2013-04-15 22:44:00,56.1,51.0,28.45,SSW,208,6.0,12.0,83,0.00,,,0.00,weatherlink.com 1.10,2013-04-16 02:44:00,
2013-04-15 22:59:00,56.0,51.0,28.45,SSE,163,6.0,10.0,83,0.00,,,0.00,weatherlink.com 1.10,2013-04-16 02:59:00,
2013-04-15 23:14:00,56.0,51.0,28.45,SSW,210,1.0,9.0,83,0.00,,,0.00,weatherlink.com 1.10,2013-04-16 03:14:00,
2013-04-15 23:29:00,56.1,51.0,28.45,South,172,4.0,7.0,83,0.00,,,0.00,weatherlink.com 1.10,2013-04-16 03:29:00,
2013-04-15 23:44:00,56.1,51.0,28.45,SSE,162,3.0,8.0,83,0.00,,,0.00,weatherlink.com 1.10,2013-04-16 03:44:00,
2013-04-15 23:59:00,56.2,51.0,28.45,SSW,195,2.0,8.0,83,0.00,,,0.00,weatherlink.com 1.10,2013-04-16 03:59:00,